Time;durP1;ratioP1;P1;durP2;ratioP2;P2;SDS_P1;SDS_P2;PMS_P1;PMS_P2;Temp;Humidity;BMP_temperature;BMP_pressure;BME280_temperature;BME280_humidity;BME280_pressure;Samples;Min_cycle;Max_cycle;Signal;HPM_P1;HPM_P2
2022/03/18 16:56:11;;;;;;;8.25;2.45;;;;;;;;;;4686976;27;13178063;-78
2022/03/18 16:58:37;;;;;;;8.88;2.88;;;;;;;;;;5134895;27;20039;-78
2022/03/18 17:01:08;;;;;;;12.63;2.92;;;;;;;;;;5137472;27;20569;-76
2022/03/18 17:03:36;;;;;;;5.25;2.40;;;;;;;;;;5121740;27;20369;-76
2022/03/18 17:06:03;;;;;;;7.70;2.95;;;;;;;;;;5145407;27;20408;-79
2022/03/18 17:08:29;;;;;;;10.57;3.65;;;;;;;;;;5136112;27;20027;-78
2022/03/18 17:10:55;;;;;;;11.75;3.15;;;;;;;;;;5133900;27;20104;-81
2022/03/18 17:13:21;;;;;;;7.18;2.83;;;;;;;;;;5126831;27;20051;-78
2022/03/18 17:15:51;;;;;;;19.85;2.85;;;;;;;;;;5127761;28;20096;-78
2022/03/18 17:18:18;;;;;;;10.63;2.80;;;;;;;;;;5123666;27;20026;-79
2022/03/18 17:20:44;;;;;;;10.52;2.90;;;;;;;;;;5123461;28;20513;-78
2022/03/18 17:23:11;;;;;;;9.13;2.95;;;;;;;;;;5109894;28;20097;-79
2022/03/18 17:25:38;;;;;;;9.50;3.15;;;;;;;;;;5109535;28;20027;-77
2022/03/18 17:28:04;;;;;;;10.00;3.97;;;;;;;;;;5109389;28;20058;-77
2022/03/18 17:30:30;;;;;;;14.48;3.05;;;;;;;;;;5130030;28;20377;-82
2022/03/18 17:32:56;;;;;;;12.18;3.30;;;;;;;;;;5130794;28;20026;-80
2022/03/18 17:35:24;;;;;;;10.90;2.95;;;;;;;;;;5129660;28;20020;-79
2022/03/18 17:37:53;;;;;;;9.35;2.92;;;;;;;;;;5126766;28;20110;-79
2022/03/18 17:40:20;;;;;;;9.90;2.97;;;;;;;;;;5126843;28;20035;-79
2022/03/18 17:42:46;;;;;;;13.27;2.90;;;;;;;;;;5130969;28;20541;-79
2022/03/18 17:45:13;;;;;;;15.23;3.00;;;;;;;;;;5129406;28;20260;-80
2022/03/18 17:47:40;;;;;;;33.42;3.78;;;;;;;;;;5121308;28;20016;-78
2022/03/18 17:50:07;;;;;;;1999.90;176.73;;;;;;;;;;5119368;28;20350;-79
2022/03/18 17:52:33;;;;;;;1277.97;88.43;;;;;;;;;;5112417;28;20065;-79
2022/03/18 17:54:59;;;;;;;619.20;37.65;;;;;;;;;;5126580;28;20043;-79
2022/03/18 17:57:25;;;;;;;155.18;10.55;;;;;;;;;;5128926;28;20030;-79
2022/03/18 17:59:55;;;;;;;104.30;7.07;;;;;;;;;;5119274;28;20031;-79
2022/03/18 18:02:24;;;;;;;31.50;4.95;;;;;;;;;;5112847;28;20032;-79
2022/03/18 18:04:50;;;;;;;14.10;3.47;;;;;;;;;;5122991;28;20399;-79
2022/03/18 18:07:18;;;;;;;13.90;3.03;;;;;;;;;;5108283;28;20027;-79
2022/03/18 18:09:50;;;;;;;12.18;3.35;;;;;;;;;;5107524;28;20023;-79
2022/03/18 18:12:20;;;;;;;11.75;4.18;;;;;;;;;;5101768;28;20038;-79
2022/03/18 18:14:48;;;;;;;12.70;4.07;;;;;;;;;;5105084;28;20116;-79
2022/03/18 18:17:14;;;;;;;11.18;3.88;;;;;;;;;;5101222;28;20034;-79
2022/03/18 18:22:44;;;;;;;12.15;3.50;;;;;;;;;;5106841;28;20339;-77
2022/03/18 18:25:17;;;;;;;16.27;3.83;;;;;;;;;;5104911;28;20408;-78
2022/03/18 18:27:51;;;;;;;11.27;3.75;;;;;;;;;;5100027;28;20382;-77
2022/03/18 18:30:27;;;;;;;5.43;2.78;;;;;;;;;;5092438;28;20024;-78
2022/03/18 18:33:11;;;;;;;10.73;3.55;;;;;;;;;;5101723;28;20091;-77
2022/03/18 18:35:52;;;;;;;8.25;2.92;;;;;;;;;;5107528;28;20335;-77
2022/03/18 18:38:19;;;;;;;10.73;3.30;;;;;;;;;;5084320;28;20093;-77
2022/03/18 18:40:45;;;;;;;11.63;3.05;;;;;;;;;;5073254;28;20035;-77
2022/03/18 18:43:14;;;;;;;10.80;3.58;;;;;;;;;;5060972;28;20420;-77
2022/03/18 18:45:40;;;;;;;11.00;3.17;;;;;;;;;;5064022;28;20029;-78
2022/03/18 18:48:07;;;;;;;12.65;4.28;;;;;;;;;;5074340;28;20055;-73
2022/03/18 18:50:34;;;;;;;8.93;3.80;;;;;;;;;;5074111;28;20089;-78
2022/03/18 18:53:03;;;;;;;14.93;4.15;;;;;;;;;;5091884;28;20521;-78
2022/03/18 18:55:29;;;;;;;18.48;4.40;;;;;;;;;;5088407;28;20078;-79
2022/03/18 18:57:55;;;;;;;13.80;4.68;;;;;;;;;;5083857;28;20054;-79
2022/03/18 19:00:22;;;;;;;12.98;4.43;;;;;;;;;;5082169;28;20029;-79
2022/03/18 19:02:49;;;;;;;14.25;4.60;;;;;;;;;;5086518;28;20027;-78
2022/03/18 19:05:16;;;;;;;15.15;4.47;;;;;;;;;;5079773;28;20029;-78
2022/03/18 19:07:43;;;;;;;14.90;5.10;;;;;;;;;;5080792;28;20493;-77
2022/03/18 19:10:09;;;;;;;11.82;5.03;;;;;;;;;;5075387;28;20486;-77
2022/03/18 19:12:35;;;;;;;13.65;4.95;;;;;;;;;;5078778;28;20024;-77
2022/03/18 19:15:02;;;;;;;19.35;5.53;;;;;;;;;;5077488;28;20051;-77
2022/03/18 19:17:29;;;;;;;19.27;5.88;;;;;;;;;;5074792;28;20027;-77
2022/03/18 19:19:55;;;;;;;18.67;5.47;;;;;;;;;;5075907;28;20404;-77
2022/03/18 19:22:22;;;;;;;13.27;5.97;;;;;;;;;;5091474;28;20115;-77
2022/03/18 19:24:49;;;;;;;14.57;5.55;;;;;;;;;;5107212;28;20017;-76
2022/03/18 19:27:16;;;;;;;14.02;5.90;;;;;;;;;;5101742;28;20547;-77
2022/03/18 19:29:43;;;;;;;16.20;6.78;;;;;;;;;;5100338;28;20166;-77
2022/03/18 19:32:29;;;;;;;15.98;6.07;;;;;;;;;;5101464;28;20023;-77
2022/03/18 19:34:57;;;;;;;11.60;5.45;;;;;;;;;;5096902;28;20024;-76
2022/03/18 19:37:23;;;;;;;16.25;5.43;;;;;;;;;;5112822;28;20099;-77
2022/03/18 19:39:49;;;;;;;13.35;5.50;;;;;;;;;;5097950;28;20048;-77
2022/03/18 19:42:15;;;;;;;19.17;5.55;;;;;;;;;;5098441;28;20533;-77
2022/03/18 19:44:42;;;;;;;16.20;5.60;;;;;;;;;;5097968;28;20039;-77
2022/03/18 19:47:08;;;;;;;14.95;4.95;;;;;;;;;;5102213;28;20016;-77
2022/03/18 19:49:34;;;;;;;18.35;6.05;;;;;;;;;;5098359;28;20028;-77
2022/03/18 19:52:00;;;;;;;17.50;5.38;;;;;;;;;;5101410;28;20020;-77
2022/03/18 19:54:26;;;;;;;10.63;4.85;;;;;;;;;;5101381;28;20035;-77
2022/03/18 20:02:22;;;;;;;13.25;5.35;;;;;;;;;;5101027;28;20091;-77
2022/03/18 20:04:49;;;;;;;18.80;5.88;;;;;;;;;;5105820;28;20096;-77
2022/03/18 20:07:15;;;;;;;15.05;5.55;;;;;;;;;;5106341;28;20023;-77
2022/03/18 20:09:42;;;;;;;18.60;6.13;;;;;;;;;;5097894;28;20039;-77
2022/03/18 20:12:08;;;;;;;15.63;7.15;;;;;;;;;;5098539;28;20051;-77
2022/03/18 20:14:34;;;;;;;16.98;6.68;;;;;;;;;;5095075;28;20035;-77
2022/03/18 20:17:04;;;;;;;15.82;5.68;;;;;;;;;;5101965;28;20071;-77
2022/03/18 20:19:30;;;;;;;12.13;5.78;;;;;;;;;;5102615;28;20455;-77
2022/03/18 20:21:56;;;;;;;15.23;5.43;;;;;;;;;;5095825;28;20458;-77
2022/03/18 20:24:23;;;;;;;12.38;5.40;;;;;;;;;;5094348;28;20038;-77
2022/03/18 20:26:49;;;;;;;11.45;4.68;;;;;;;;;;5098213;28;20012;-77
2022/03/18 20:29:15;;;;;;;13.95;4.75;;;;;;;;;;5098399;28;20016;-77
2022/03/18 20:31:42;;;;;;;17.55;5.20;;;;;;;;;;5096263;28;20023;-78
2022/03/18 20:34:08;;;;;;;14.05;5.40;;;;;;;;;;5105139;28;20024;-81
2022/03/18 20:36:35;;;;;;;17.42;5.40;;;;;;;;;;5101203;28;20480;-81
2022/03/18 20:39:01;;;;;;;14.68;5.43;;;;;;;;;;5099838;28;20069;-81
2022/03/18 20:41:27;;;;;;;16.85;5.00;;;;;;;;;;5109543;28;20030;-78
2022/03/18 20:43:53;;;;;;;17.58;5.43;;;;;;;;;;5102522;28;20371;-81
2022/03/18 20:46:20;;;;;;;23.55;6.40;;;;;;;;;;5111335;28;20102;-80
2022/03/18 20:48:46;;;;;;;14.93;5.35;;;;;;;;;;5103651;28;20591;-81
2022/03/18 20:51:12;;;;;;;19.65;6.32;;;;;;;;;;5105457;28;20421;-81
2022/03/18 20:53:38;;;;;;;17.08;5.80;;;;;;;;;;5091639;28;20016;-80
2022/03/18 20:56:05;;;;;;;15.57;5.38;;;;;;;;;;5099784;28;20051;-81
2022/03/18 20:58:31;;;;;;;17.65;5.97;;;;;;;;;;5107201;28;20101;-81
2022/03/18 21:00:57;;;;;;;19.48;5.97;;;;;;;;;;5092644;28;20035;-81
2022/03/18 21:03:23;;;;;;;24.85;7.65;;;;;;;;;;5095465;28;20068;-81
2022/03/18 21:05:50;;;;;;;21.13;6.05;;;;;;;;;;5111845;28;20024;-81
2022/03/18 21:08:16;;;;;;;17.27;6.55;;;;;;;;;;5113264;28;20047;-80
2022/03/18 21:10:43;;;;;;;18.50;6.90;;;;;;;;;;5101427;28;20739;-80
2022/03/18 21:13:10;;;;;;;19.13;6.40;;;;;;;;;;5113014;28;20020;-80
2022/03/18 21:15:37;;;;;;;22.98;6.38;;;;;;;;;;5093868;28;20081;-80
2022/03/18 21:18:03;;;;;;;21.15;6.57;;;;;;;;;;5092773;28;20020;-80
2022/03/18 21:20:29;;;;;;;23.38;6.55;;;;;;;;;;5106317;28;20073;-80
2022/03/18 21:22:55;;;;;;;17.60;6.53;;;;;;;;;;5112995;28;20376;-80
2022/03/18 21:30:38;;;;;;;23.38;6.88;;;;;;;;;;5111040;28;20028;-80
2022/03/18 21:30:52;;;;;;;17.10;6.78;;;;;;;;;;5112884;28;20055;-80
2022/03/18 21:33:18;;;;;;;29.58;7.03;;;;;;;;;;5111374;28;20016;-81
2022/03/18 21:35:49;;;;;;;22.85;7.40;;;;;;;;;;5112621;28;20522;-80
2022/03/18 21:38:16;;;;;;;23.63;7.90;;;;;;;;;;5112602;28;20039;-80
2022/03/18 21:40:42;;;;;;;17.88;6.75;;;;;;;;;;5112887;28;20434;-80
2022/03/18 21:43:09;;;;;;;23.65;7.00;;;;;;;;;;5114601;28;20051;-80
2022/03/18 21:45:39;;;;;;;23.13;7.30;;;;;;;;;;5094899;28;20020;-80
2022/03/18 21:48:06;;;;;;;19.42;7.18;;;;;;;;;;5108196;28;20047;-80
2022/03/18 21:50:32;;;;;;;26.02;7.13;;;;;;;;;;5115407;28;20028;-80
2022/03/18 21:52:58;;;;;;;24.00;7.68;;;;;;;;;;5116459;28;20032;-80
2022/03/18 21:55:24;;;;;;;20.75;7.00;;;;;;;;;;5116053;28;20066;-80
2022/03/18 21:57:50;;;;;;;19.00;6.97;;;;;;;;;;5116415;28;20028;-80
2022/03/18 22:00:16;;;;;;;26.27;7.28;;;;;;;;;;5115129;28;20028;-81
2022/03/18 22:02:42;;;;;;;22.73;6.50;;;;;;;;;;5115988;28;20488;-82
2022/03/18 22:05:09;;;;;;;20.67;7.15;;;;;;;;;;5116508;28;20024;-81
2022/03/18 22:07:35;;;;;;;21.45;7.00;;;;;;;;;;5116001;28;20019;-81
2022/03/18 22:10:06;;;;;;;27.60;7.35;;;;;;;;;;5116330;28;20026;-81
2022/03/18 22:12:35;;;;;;;26.58;6.82;;;;;;;;;;5116289;28;20031;-81
2022/03/18 22:15:01;;;;;;;23.70;6.45;;;;;;;;;;5116022;28;20108;-81
2022/03/18 22:17:27;;;;;;;16.55;6.03;;;;;;;;;;5116198;28;20036;-81
2022/03/18 22:19:53;;;;;;;21.98;6.13;;;;;;;;;;5115861;28;20420;-81
2022/03/18 22:22:19;;;;;;;26.23;7.45;;;;;;;;;;5114811;28;20396;-81
2022/03/18 22:24:45;;;;;;;22.55;5.85;;;;;;;;;;5116150;28;20039;-81
2022/03/18 22:27:11;;;;;;;24.45;6.30;;;;;;;;;;5115700;28;20035;-81
2022/03/18 22:29:37;;;;;;;25.15;5.90;;;;;;;;;;5115716;28;20024;-81
2022/03/18 22:32:03;;;;;;;19.85;5.68;;;;;;;;;;5115735;28;20024;-81
2022/03/18 22:34:29;;;;;;;19.92;5.60;;;;;;;;;;5115627;28;20052;-81
2022/03/18 22:36:55;;;;;;;24.73;6.40;;;;;;;;;;5116120;28;20119;-80
2022/03/18 22:39:21;;;;;;;19.35;6.30;;;;;;;;;;5114299;28;20031;-81
2022/03/18 22:41:51;;;;;;;15.52;5.20;;;;;;;;;;5115751;28;20026;-81
2022/03/18 22:44:17;;;;;;;18.13;5.63;;;;;;;;;;5113870;28;20139;-81
2022/03/18 22:46:44;;;;;;;18.73;5.50;;;;;;;;;;5115784;28;20094;-81
2022/03/18 22:49:10;;;;;;;21.33;6.00;;;;;;;;;;5114242;28;20024;-80
2022/03/18 22:51:36;;;;;;;28.60;7.38;;;;;;;;;;5115231;28;20023;-80
2022/03/18 22:54:02;;;;;;;19.70;5.75;;;;;;;;;;5114165;28;20031;-80
2022/03/18 22:56:28;;;;;;;26.80;5.90;;;;;;;;;;5115236;28;20093;-81
2022/03/18 22:58:54;;;;;;;18.63;5.60;;;;;;;;;;5113865;28;20178;-81
2022/03/18 23:01:20;;;;;;;21.60;5.22;;;;;;;;;;5115252;28;20217;-80
2022/03/18 23:03:47;;;;;;;15.90;5.90;;;;;;;;;;5115288;28;20113;-81
2022/03/18 23:06:13;;;;;;;18.17;5.75;;;;;;;;;;5115195;28;20038;-81
2022/03/18 23:08:39;;;;;;;18.95;5.45;;;;;;;;;;5115226;28;20019;-81
2022/03/18 23:13:50;;;;;;;17.83;5.30;;;;;;;;;;5115349;28;20086;-81
2022/03/18 23:16:26;;;;;;;23.48;6.43;;;;;;;;;;5115188;28;20027;-81
2022/03/18 23:18:52;;;;;;;23.63;5.90;;;;;;;;;;5113854;28;20392;-80
2022/03/18 23:21:18;;;;;;;20.65;6.57;;;;;;;;;;5093527;28;20107;-81
2022/03/18 23:23:44;;;;;;;18.23;4.95;;;;;;;;;;5094617;28;20024;-81
2022/03/18 23:26:10;;;;;;;23.95;5.90;;;;;;;;;;5094372;28;20028;-81
2022/03/18 23:28:36;;;;;;;16.58;5.28;;;;;;;;;;5094546;28;20461;-80
2022/03/18 23:31:02;;;;;;;21.20;6.05;;;;;;;;;;5094489;28;20430;-80
2022/03/18 23:33:29;;;;;;;19.95;5.50;;;;;;;;;;5094154;28;20052;-80
2022/03/18 23:35:56;;;;;;;27.00;5.50;;;;;;;;;;5094721;28;20031;-81
2022/03/18 23:38:23;;;;;;;20.25;6.13;;;;;;;;;;5094512;28;20120;-80
2022/03/18 23:40:49;;;;;;;17.48;5.18;;;;;;;;;;5094242;28;20111;-80
2022/03/18 23:43:15;;;;;;;20.42;5.97;;;;;;;;;;5092801;28;20028;-80
2022/03/18 23:45:41;;;;;;;19.17;5.15;;;;;;;;;;5094128;28;20367;-81
2022/03/18 23:48:07;;;;;;;25.05;4.80;;;;;;;;;;5093781;28;20462;-81
2022/03/18 23:50:34;;;;;;;22.60;5.40;;;;;;;;;;5094226;28;20031;-80
2022/03/18 23:53:00;;;;;;;19.48;5.38;;;;;;;;;;5094223;28;20027;-80
2022/03/18 23:55:26;;;;;;;20.23;5.93;;;;;;;;;;5093933;28;20550;-80
2022/03/18 23:57:52;;;;;;;18.23;4.82;;;;;;;;;;5102143;28;20045;-80
